Time;durP1;ratioP1;P1;durP2;ratioP2;P2;SDS_P1;SDS_P2;PMS_P1;PMS_P2;Temp;Humidity;BMP_temperature;BMP_pressure;BME280_temperature;BME280_humidity;BME280_pressure;Samples;Min_cycle;Max_cycle;Signal;HPM_P1;HPM_P2
2023/10/03 00:02:10;;;;;;;42.60;17.33;;;;;;;;;;4965920;28;20120;-71
2023/10/03 00:04:38;;;;;;;43.45;16.67;;;;;;;;;;4969375;28;20054;-71
2023/10/03 00:07:05;;;;;;;44.58;17.52;;;;;;;;;;4974801;28;20062;-71
2023/10/03 00:09:33;;;;;;;38.65;17.65;;;;;;;;;;4973302;28;20053;-71
2023/10/03 00:12:01;;;;;;;41.42;17.05;;;;;;;;;;4972574;28;20050;-72
2023/10/03 00:14:28;;;;;;;53.65;17.60;;;;;;;;;;4968616;28;20050;-72
2023/10/03 00:16:55;;;;;;;41.00;17.15;;;;;;;;;;4992887;28;20172;-72
2023/10/03 00:19:24;;;;;;;53.60;17.65;;;;;;;;;;4970514;28;20077;-72
2023/10/03 00:21:51;;;;;;;52.38;16.42;;;;;;;;;;4975827;28;20153;-72
2023/10/03 00:24:19;;;;;;;39.85;16.55;;;;;;;;;;4975300;28;20058;-72
2023/10/03 00:26:46;;;;;;;40.35;16.33;;;;;;;;;;4992225;28;20445;-72
2023/10/03 00:29:23;;;;;;;52.50;18.02;;;;;;;;;;4974107;28;20391;-71
2023/10/03 00:31:52;;;;;;;47.10;16.95;;;;;;;;;;4968338;28;20066;-71
2023/10/03 00:34:22;;;;;;;46.70;17.48;;;;;;;;;;4990551;28;20525;-72
2023/10/03 00:36:54;;;;;;;48.30;17.48;;;;;;;;;;4977038;28;20052;-71
2023/10/03 00:39:22;;;;;;;38.25;15.35;;;;;;;;;;4978218;28;20045;-72
2023/10/03 00:41:49;;;;;;;50.67;17.95;;;;;;;;;;4977729;28;20081;-72
2023/10/03 00:44:19;;;;;;;52.72;17.92;;;;;;;;;;4975344;28;20054;-71
2023/10/03 00:46:47;;;;;;;51.95;18.90;;;;;;;;;;4974371;28;20187;-72
2023/10/03 00:49:15;;;;;;;48.33;17.20;;;;;;;;;;4974378;28;20109;-72
2023/10/03 00:51:45;;;;;;;45.30;17.50;;;;;;;;;;4978024;28;20054;-72
2023/10/03 00:54:14;;;;;;;52.53;17.90;;;;;;;;;;4981265;28;20074;-71
2023/10/03 00:56:45;;;;;;;47.65;18.33;;;;;;;;;;4975730;28;20051;-71
2023/10/03 00:59:13;;;;;;;49.60;17.40;;;;;;;;;;4978140;28;20046;-71
2023/10/03 01:01:41;;;;;;;49.58;17.00;;;;;;;;;;4978582;28;20140;-71
2023/10/03 01:04:19;;;;;;;48.15;17.38;;;;;;;;;;4997430;28;20053;-71
2023/10/03 01:06:47;;;;;;;41.45;17.75;;;;;;;;;;4973499;28;20065;-71
2023/10/03 01:09:23;;;;;;;47.55;17.38;;;;;;;;;;4981632;28;20137;-71
2023/10/03 01:11:52;;;;;;;34.25;15.65;;;;;;;;;;4981292;28;20108;-72
2023/10/03 01:14:20;;;;;;;42.67;17.05;;;;;;;;;;4979232;28;20164;-72
2023/10/03 01:16:48;;;;;;;45.03;17.15;;;;;;;;;;4977337;28;20068;-71
2023/10/03 01:19:20;;;;;;;42.83;17.30;;;;;;;;;;4977514;28;20490;-71
2023/10/03 01:21:49;;;;;;;45.53;17.85;;;;;;;;;;4974320;28;20065;-72
2023/10/03 01:24:24;;;;;;;42.75;16.65;;;;;;;;;;4980648;28;20042;-73
2023/10/03 01:26:53;;;;;;;37.80;15.57;;;;;;;;;;4972078;28;20079;-72
2023/10/03 01:29:21;;;;;;;38.25;16.00;;;;;;;;;;4969670;28;20094;-72
2023/10/03 01:31:48;;;;;;;43.05;15.85;;;;;;;;;;4973020;28;20710;-72
2023/10/03 01:34:16;;;;;;;39.33;16.27;;;;;;;;;;4971186;28;20136;-72
2023/10/03 01:36:47;;;;;;;39.88;15.48;;;;;;;;;;4974457;28;20054;-72
2023/10/03 01:39:15;;;;;;;42.95;17.33;;;;;;;;;;4991454;28;20125;-72
2023/10/03 01:41:44;;;;;;;40.60;15.32;;;;;;;;;;4967709;28;20512;-72
2023/10/03 01:44:11;;;;;;;39.78;15.43;;;;;;;;;;4971812;28;20053;-72
2023/10/03 01:46:39;;;;;;;41.38;16.10;;;;;;;;;;4973557;28;20405;-72
2023/10/03 01:49:06;;;;;;;38.50;14.85;;;;;;;;;;4975673;28;20097;-72
2023/10/03 01:51:34;;;;;;;41.97;16.13;;;;;;;;;;4988438;28;20050;-72
2023/10/03 01:54:01;;;;;;;41.90;15.57;;;;;;;;;;4972426;28;20072;-72
2023/10/03 01:56:33;;;;;;;46.80;16.08;;;;;;;;;;4974136;28;20070;-71
2023/10/03 01:59:02;;;;;;;39.58;15.38;;;;;;;;;;4990350;28;20081;-72
2023/10/03 02:01:30;;;;;;;39.35;15.40;;;;;;;;;;4969583;28;20054;-72
2023/10/03 02:03:59;;;;;;;37.40;15.65;;;;;;;;;;4977232;28;20469;-72
2023/10/03 02:06:27;;;;;;;43.85;16.52;;;;;;;;;;4978308;28;20050;-72
2023/10/03 02:08:54;;;;;;;42.15;15.80;;;;;;;;;;4976076;28;20050;-72
2023/10/03 02:11:26;;;;;;;37.20;15.07;;;;;;;;;;4967515;28;20061;-72
2023/10/03 02:13:54;;;;;;;38.45;14.73;;;;;;;;;;4974292;28;20138;-72
2023/10/03 02:16:23;;;;;;;42.60;14.63;;;;;;;;;;4975641;28;20129;-72
2023/10/03 02:18:52;;;;;;;43.70;16.20;;;;;;;;;;4968564;28;20054;-72
2023/10/03 02:21:19;;;;;;;41.38;14.70;;;;;;;;;;4975934;28;20405;-72
2023/10/03 02:23:48;;;;;;;36.00;13.52;;;;;;;;;;4974584;28;20058;-72
2023/10/03 02:26:16;;;;;;;37.10;13.65;;;;;;;;;;4974013;28;20563;-72
2023/10/03 02:28:43;;;;;;;39.92;13.73;;;;;;;;;;4978766;28;20054;-71
2023/10/03 02:31:11;;;;;;;35.42;12.95;;;;;;;;;;4980770;28;20611;-72
2023/10/03 02:33:43;;;;;;;31.92;12.65;;;;;;;;;;4977513;28;20136;-72
2023/10/03 02:36:10;;;;;;;38.28;13.85;;;;;;;;;;4979111;28;20038;-72
2023/10/03 02:38:38;;;;;;;34.30;14.32;;;;;;;;;;4973992;28;20576;-71
2023/10/03 02:41:06;;;;;;;32.38;12.50;;;;;;;;;;4994406;28;20393;-71
2023/10/03 02:43:34;;;;;;;32.22;12.68;;;;;;;;;;4978903;28;20065;-72
2023/10/03 02:46:04;;;;;;;35.70;14.15;;;;;;;;;;4976421;28;20046;-72
2023/10/03 02:48:31;;;;;;;33.35;12.02;;;;;;;;;;4977330;28;20508;-71
2023/10/03 02:51:01;;;;;;;35.78;13.07;;;;;;;;;;4976861;28;20053;-74
2023/10/03 02:53:29;;;;;;;30.45;11.77;;;;;;;;;;4971508;28;20054;-72
2023/10/03 02:55:56;;;;;;;34.00;11.48;;;;;;;;;;4975140;28;20456;-72
2023/10/03 02:58:23;;;;;;;28.35;11.48;;;;;;;;;;4975808;28;20057;-73
2023/10/03 03:00:51;;;;;;;32.05;11.32;;;;;;;;;;4977032;28;20055;-71
2023/10/03 03:03:18;;;;;;;28.23;10.63;;;;;;;;;;4978404;28;20058;-71
2023/10/03 03:05:48;;;;;;;31.13;10.90;;;;;;;;;;4978117;28;20548;-71
2023/10/03 03:08:23;;;;;;;30.60;11.68;;;;;;;;;;4993929;28;20050;-72
2023/10/03 03:10:54;;;;;;;30.85;11.27;;;;;;;;;;4974624;28;20057;-71
2023/10/03 03:13:22;;;;;;;31.77;11.43;;;;;;;;;;4976625;28;20057;-72
2023/10/03 03:15:54;;;;;;;28.05;11.18;;;;;;;;;;4978309;28;20062;-73
2023/10/03 03:18:21;;;;;;;28.50;10.30;;;;;;;;;;4982088;28;20693;-73
2023/10/03 03:20:57;;;;;;;29.65;11.65;;;;;;;;;;4975460;28;20054;-74
2023/10/03 03:23:29;;;;;;;31.10;11.35;;;;;;;;;;4977523;28;20046;-73
2023/10/03 03:26:09;;;;;;;34.70;11.18;;;;;;;;;;4980122;28;20122;-73
2023/10/03 03:28:38;;;;;;;28.45;10.68;;;;;;;;;;4977443;28;20042;-72
2023/10/03 03:31:16;;;;;;;33.40;12.10;;;;;;;;;;4978742;28;20105;-73
2023/10/03 03:33:45;;;;;;;29.20;11.23;;;;;;;;;;4971886;28;20490;-72
2023/10/03 03:36:17;;;;;;;32.00;11.38;;;;;;;;;;4974098;28;20038;-72
2023/10/03 03:38:45;;;;;;;27.63;11.10;;;;;;;;;;4981765;28;20050;-72
2023/10/03 03:41:13;;;;;;;31.20;9.90;;;;;;;;;;4976466;28;20073;-72
2023/10/03 03:43:42;;;;;;;31.27;11.90;;;;;;;;;;4977165;28;20050;-73
2023/10/03 03:46:09;;;;;;;26.98;10.15;;;;;;;;;;4979363;28;20077;-74
2023/10/03 03:48:38;;;;;;;28.48;10.35;;;;;;;;;;4977402;28;20062;-72
2023/10/03 03:51:07;;;;;;;24.88;9.48;;;;;;;;;;4979406;28;20061;-73
2023/10/03 03:53:34;;;;;;;27.90;10.60;;;;;;;;;;4975881;28;20053;-72
2023/10/03 03:56:04;;;;;;;26.60;10.35;;;;;;;;;;4979863;28;20502;-73
2023/10/03 03:58:32;;;;;;;33.60;10.52;;;;;;;;;;4980368;28;20074;-73
2023/10/03 04:01:00;;;;;;;28.33;10.52;;;;;;;;;;4980235;28;20054;-72
2023/10/03 04:03:34;;;;;;;26.52;10.35;;;;;;;;;;4981662;28;20045;-72
2023/10/03 04:06:02;;;;;;;37.10;10.48;;;;;;;;;;4983640;28;20142;-72
2023/10/03 04:08:29;;;;;;;27.40;10.23;;;;;;;;;;4986260;28;20053;-73
2023/10/03 04:10:57;;;;;;;31.05;10.35;;;;;;;;;;4978827;28;20381;-72
2023/10/03 04:13:26;;;;;;;29.95;10.00;;;;;;;;;;4979251;28;20057;-72
2023/10/03 04:15:54;;;;;;;28.70;9.80;;;;;;;;;;4982684;28;20089;-72
2023/10/03 04:18:21;;;;;;;28.23;9.85;;;;;;;;;;4973393;28;20058;-73
2023/10/03 04:20:49;;;;;;;26.20;10.23;;;;;;;;;;4980460;28;20141;-72
2023/10/03 04:23:16;;;;;;;25.05;9.43;;;;;;;;;;4978679;28;20065;-72
2023/10/03 04:25:44;;;;;;;25.50;9.70;;;;;;;;;;4975263;28;20046;-72
2023/10/03 04:28:16;;;;;;;22.80;9.25;;;;;;;;;;4978993;28;20042;-72
2023/10/03 04:30:45;;;;;;;28.80;8.88;;;;;;;;;;4976779;28;20101;-72
2023/10/03 04:33:17;;;;;;;26.92;9.00;;;;;;;;;;4980492;28;20057;-72
2023/10/03 04:35:44;;;;;;;29.73;9.80;;;;;;;;;;4998432;28;20039;-73
2023/10/03 04:38:15;;;;;;;28.02;9.23;;;;;;;;;;4976999;28;20070;-74
2023/10/03 04:40:43;;;;;;;27.65;9.35;;;;;;;;;;4979937;28;20129;-74
2023/10/03 04:43:11;;;;;;;29.10;9.25;;;;;;;;;;4974642;28;20050;-73
2023/10/03 04:45:39;;;;;;;28.98;9.07;;;;;;;;;;4976133;28;20129;-72
2023/10/03 04:48:08;;;;;;;30.05;8.98;;;;;;;;;;4981377;28;20046;-72
2023/10/03 04:50:37;;;;;;;31.05;8.90;;;;;;;;;;4973503;28;20668;-73
2023/10/03 04:53:07;;;;;;;31.98;9.00;;;;;;;;;;4974929;28;20063;-71
2023/10/03 04:55:35;;;;;;;35.50;8.80;;;;;;;;;;4972517;28;20394;-73
2023/10/03 04:58:02;;;;;;;31.52;9.60;;;;;;;;;;4991282;28;20046;-75
2023/10/03 05:00:30;;;;;;;34.72;9.32;;;;;;;;;;4968590;28;20052;-73
2023/10/03 05:02:57;;;;;;;40.88;10.13;;;;;;;;;;4976812;28;20051;-73
2023/10/03 05:05:27;;;;;;;28.00;9.63;;;;;;;;;;4979106;28;20046;-72
2023/10/03 05:07:56;;;;;;;36.72;10.43;;;;;;;;;;4974801;28;20046;-72
2023/10/03 05:10:24;;;;;;;40.50;10.23;;;;;;;;;;4973647;28;20085;-72
2023/10/03 05:12:52;;;;;;;38.50;11.05;;;;;;;;;;4973148;28;20110;-72
2023/10/03 05:15:19;;;;;;;39.72;11.57;;;;;;;;;;4974766;28;20065;-72
2023/10/03 05:17:47;;;;;;;31.70;11.07;;;;;;;;;;4969579;28;20066;-73
2023/10/03 05:20:17;;;;;;;35.33;11.60;;;;;;;;;;4975120;28;20062;-71
2023/10/03 05:22:46;;;;;;;37.30;11.43;;;;;;;;;;4973259;28;20482;-76
2023/10/03 05:25:17;;;;;;;35.40;12.65;;;;;;;;;;4975825;28;20490;-70
2023/10/03 05:27:45;;;;;;;33.95;12.48;;;;;;;;;;4970272;28;20394;-72
2023/10/03 05:30:14;;;;;;;34.42;13.52;;;;;;;;;;4973546;28;20058;-73
2023/10/03 05:32:42;;;;;;;37.83;15.10;;;;;;;;;;4967086;28;20109;-73
2023/10/03 05:35:11;;;;;;;36.17;14.00;;;;;;;;;;4975143;28;20049;-74
2023/10/03 05:37:39;;;;;;;38.10;14.70;;;;;;;;;;4976744;28;20053;-70
2023/10/03 05:40:12;;;;;;;41.03;15.15;;;;;;;;;;4968455;28;20069;-72
2023/10/03 05:42:41;;;;;;;42.97;15.00;;;;;;;;;;4976788;28;20103;-75
2023/10/03 05:45:10;;;;;;;37.35;15.43;;;;;;;;;;4975508;28;20153;-75
2023/10/03 05:47:37;;;;;;;41.22;14.48;;;;;;;;;;4974429;28;20050;-74
2023/10/03 05:50:05;;;;;;;37.80;14.48;;;;;;;;;;4974886;28;20486;-74
2023/10/03 05:52:32;;;;;;;35.97;13.43;;;;;;;;;;4995089;28;20042;-75
2023/10/03 05:55:00;;;;;;;42.63;13.77;;;;;;;;;;4974685;28;20054;-75
2023/10/03 05:57:28;;;;;;;34.90;13.73;;;;;;;;;;4971477;28;20054;-75
2023/10/03 05:59:56;;;;;;;40.42;13.75;;;;;;;;;;4990055;28;20378;-76
2023/10/03 06:02:23;;;;;;;31.58;11.75;;;;;;;;;;4971476;28;20057;-75
2023/10/03 06:04:51;;;;;;;29.45;12.27;;;;;;;;;;4972494;28;20054;-74
2023/10/03 06:07:18;;;;;;;38.50;11.18;;;;;;;;;;4979049;28;20401;-75
2023/10/03 06:09:45;;;;;;;33.25;10.45;;;;;;;;;;4971373;28;20055;-75
2023/10/03 06:12:12;;;;;;;32.10;9.15;;;;;;;;;;4970924;28;20412;-74
2023/10/03 06:14:41;;;;;;;32.05;9.10;;;;;;;;;;4998994;28;20505;-75
2023/10/03 06:17:09;;;;;;;34.45;8.15;;;;;;;;;;4975226;28;20554;-75
2023/10/03 06:19:37;;;;;;;39.53;8.27;;;;;;;;;;4976960;28;20426;-75
2023/10/03 06:22:05;;;;;;;35.83;7.70;;;;;;;;;;4975374;28;20065;-73
2023/10/03 06:24:33;;;;;;;33.60;6.22;;;;;;;;;;4972495;28;20073;-75
2023/10/03 06:27:01;;;;;;;31.52;5.88;;;;;;;;;;4976150;28;20108;-73
2023/10/03 06:29:28;;;;;;;25.23;5.40;;;;;;;;;;4972834;28;20480;-75
2023/10/03 06:31:56;;;;;;;26.85;5.35;;;;;;;;;;4972586;28;20050;-75
2023/10/03 06:34:25;;;;;;;23.55;4.78;;;;;;;;;;4972942;28;20053;-75
2023/10/03 06:36:52;;;;;;;23.52;4.22;;;;;;;;;;4977713;28;20081;-74
2023/10/03 06:39:19;;;;;;;26.38;4.25;;;;;;;;;;4975411;28;20052;-75
2023/10/03 06:41:47;;;;;;;21.40;4.10;;;;;;;;;;4972056;28;21379;-74
2023/10/03 06:44:14;;;;;;;17.88;2.92;;;;;;;;;;4981101;28;20092;-74
2023/10/03 06:46:42;;;;;;;12.73;2.95;;;;;;;;;;4998018;28;20510;-75
2023/10/03 06:49:11;;;;;;;11.27;2.30;;;;;;;;;;4976506;28;20509;-76
2023/10/03 06:51:39;;;;;;;15.73;2.30;;;;;;;;;;4978915;28;20069;-74
2023/10/03 06:54:06;;;;;;;16.48;2.55;;;;;;;;;;4978408;28;20050;-75
2023/10/03 06:56:34;;;;;;;11.02;2.22;;;;;;;;;;4975869;28;20420;-74
2023/10/03 06:59:02;;;;;;;13.15;1.60;;;;;;;;;;4977841;28;20062;-75
2023/10/03 07:01:29;;;;;;;12.75;2.13;;;;;;;;;;4977635;28;20061;-75
2023/10/03 07:03:58;;;;;;;11.75;1.50;;;;;;;;;;4981268;28;20098;-74
2023/10/03 07:06:26;;;;;;;10.65;1.48;;;;;;;;;;4975392;28;20078;-75
2023/10/03 07:08:55;;;;;;;10.10;1.35;;;;;;;;;;4975816;28;20081;-75
2023/10/03 07:11:23;;;;;;;7.40;1.40;;;;;;;;;;4980986;28;20469;-74
2023/10/03 07:13:50;;;;;;;11.15;1.45;;;;;;;;;;4978067;28;20050;-75
2023/10/03 07:16:18;;;;;;;6.20;1.20;;;;;;;;;;4979730;28;20058;-75
2023/10/03 07:18:46;;;;;;;8.57;0.90;;;;;;;;;;4982398;28;20054;-74
2023/10/03 07:21:15;;;;;;;6.65;1.00;;;;;;;;;;4978209;28;20058;-75
2023/10/03 07:23:44;;;;;;;6.70;1.05;;;;;;;;;;4977199;28;20132;-75
2023/10/03 07:26:11;;;;;;;7.78;1.00;;;;;;;;;;4971293;28;20485;-75
2023/10/03 07:28:39;;;;;;;7.72;1.20;;;;;;;;;;4977259;28;20050;-75
2023/10/03 07:31:09;;;;;;;6.57;0.88;;;;;;;;;;4977452;28;20050;-75
2023/10/03 07:33:36;;;;;;;4.13;0.90;;;;;;;;;;4981559;28;20133;-75
2023/10/03 07:36:05;;;;;;;8.52;0.90;;;;;;;;;;4978281;28;20046;-75
2023/10/03 07:38:32;;;;;;;6.13;0.90;;;;;;;;;;4978051;28;20054;-75
2023/10/03 07:41:06;;;;;;;4.57;0.82;;;;;;;;;;4984541;28;20440;-75
2023/10/03 07:43:34;;;;;;;6.32;1.30;;;;;;;;;;4977869;28;20536;-74
2023/10/03 07:46:01;;;;;;;7.70;0.90;;;;;;;;;;4982123;28;20054;-75
2023/10/03 07:48:29;;;;;;;3.15;0.70;;;;;;;;;;4976473;28;20053;-75
2023/10/03 07:50:56;;;;;;;4.65;0.60;;;;;;;;;;4977022;28;20053;-74
2023/10/03 07:53:24;;;;;;;4.95;0.65;;;;;;;;;;4978566;28;20108;-76
2023/10/03 07:55:51;;;;;;;5.13;0.70;;;;;;;;;;4997042;28;20057;-75
2023/10/03 07:58:20;;;;;;;5.43;0.70;;;;;;;;;;4976226;28;20042;-75
2023/10/03 08:00:49;;;;;;;7.28;0.90;;;;;;;;;;5004224;28;20432;-75
2023/10/03 08:03:17;;;;;;;5.88;0.80;;;;;;;;;;4974799;28;20575;-76
2023/10/03 08:05:44;;;;;;;4.18;0.50;;;;;;;;;;4975733;28;20105;-74
2023/10/03 08:08:11;;;;;;;2.47;0.73;;;;;;;;;;4979113;28;20054;-77
2023/10/03 08:10:38;;;;;;;4.38;0.43;;;;;;;;;;4980011;28;20135;-75
2023/10/03 08:13:07;;;;;;;4.65;0.60;;;;;;;;;;4979850;28;20046;-75
2023/10/03 08:15:36;;;;;;;6.75;0.90;;;;;;;;;;4975724;28;20066;-74
2023/10/03 08:18:04;;;;;;;5.40;0.70;;;;;;;;;;4980828;28;20070;-74
2023/10/03 08:20:35;;;;;;;5.15;0.40;;;;;;;;;;4977070;28;20430;-74
2023/10/03 08:23:04;;;;;;;2.72;0.60;;;;;;;;;;4982226;28;20045;-75
2023/10/03 08:25:34;;;;;;;5.95;0.60;;;;;;;;;;4977363;28;20055;-76
2023/10/03 08:28:09;;;;;;;3.72;0.47;;;;;;;;;;4976798;28;20133;-75
2023/10/03 08:30:38;;;;;;;3.08;0.50;;;;;;;;;;4977256;28;20466;-74
2023/10/03 08:33:06;;;;;;;1.38;0.30;;;;;;;;;;4983001;28;20493;-74
2023/10/03 08:35:37;;;;;;;1.17;0.30;;;;;;;;;;4976659;28;20064;-76
2023/10/03 08:38:09;;;;;;;1.83;0.40;;;;;;;;;;4977437;28;20050;-75
2023/10/03 08:40:38;;;;;;;2.58;0.32;;;;;;;;;;4976970;28;20046;-75
2023/10/03 08:43:08;;;;;;;2.88;0.70;;;;;;;;;;4973122;28;20057;-73
2023/10/03 08:45:39;;;;;;;2.72;0.40;;;;;;;;;;4981558;28;20056;-75
2023/10/03 08:48:08;;;;;;;1.80;0.60;;;;;;;;;;4991568;28;20077;-75
2023/10/03 08:50:40;;;;;;;3.17;0.50;;;;;;;;;;4971742;28;20056;-74
2023/10/03 08:53:17;;;;;;;5.20;0.55;;;;;;;;;;4974848;28;20054;-74
2023/10/03 08:55:45;;;;;;;4.00;0.90;;;;;;;;;;4979580;28;20157;-74
2023/10/03 08:58:16;;;;;;;2.33;0.52;;;;;;;;;;4972591;28;20068;-75
2023/10/03 09:00:44;;;;;;;2.55;0.93;;;;;;;;;;4993787;28;20046;-76
2023/10/03 09:03:14;;;;;;;3.97;0.70;;;;;;;;;;4992154;28;20061;-75
2023/10/03 09:05:42;;;;;;;5.63;0.93;;;;;;;;;;4991710;28;20058;-74
2023/10/03 09:08:09;;;;;;;5.15;0.70;;;;;;;;;;4975487;28;20057;-75
2023/10/03 09:10:50;;;;;;;3.50;1.00;;;;;;;;;;4981324;28;20049;-76
2023/10/03 09:13:23;;;;;;;3.53;0.57;;;;;;;;;;4992416;28;20131;-74
2023/10/03 09:15:59;;;;;;;2.57;0.60;;;;;;;;;;4975387;28;20074;-74
2023/10/03 09:18:28;;;;;;;5.47;1.10;;;;;;;;;;4991173;28;20550;-74
2023/10/03 09:20:59;;;;;;;4.55;0.73;;;;;;;;;;4971463;28;20057;-74
2023/10/03 09:23:38;;;;;;;2.58;0.75;;;;;;;;;;4992495;28;20053;-74
2023/10/03 09:26:06;;;;;;;5.75;0.80;;;;;;;;;;4978716;28;20054;-74
2023/10/03 09:28:36;;;;;;;4.28;0.82;;;;;;;;;;4971022;28;20132;-75
2023/10/03 09:31:08;;;;;;;6.10;0.90;;;;;;;;;;4985553;28;20062;-75
2023/10/03 09:33:39;;;;;;;6.68;0.82;;;;;;;;;;4979371;28;20058;-75
2023/10/03 09:36:07;;;;;;;2.40;0.70;;;;;;;;;;4997191;28;20054;-75
2023/10/03 09:38:42;;;;;;;2.83;0.77;;;;;;;;;;4978699;28;20464;-74
2023/10/03 09:41:16;;;;;;;4.10;0.60;;;;;;;;;;4990836;28;20050;-75
2023/10/03 09:43:47;;;;;;;3.47;0.93;;;;;;;;;;4969238;28;20544;-75
2023/10/03 09:46:23;;;;;;;5.43;0.98;;;;;;;;;;4975973;28;20090;-75
2023/10/03 09:48:53;;;;;;;2.90;0.50;;;;;;;;;;4977188;28;20558;-75
2023/10/03 09:51:24;;;;;;;4.00;0.80;;;;;;;;;;4975308;28;20256;-75
2023/10/03 09:53:53;;;;;;;3.47;0.55;;;;;;;;;;4973863;28;20058;-75
2023/10/03 09:56:21;;;;;;;4.38;0.80;;;;;;;;;;4972645;28;20046;-75
2023/10/03 09:58:48;;;;;;;3.25;0.73;;;;;;;;;;4975817;28;20050;-75
2023/10/03 10:01:18;;;;;;;4.00;1.00;;;;;;;;;;4977538;28;20053;-74
2023/10/03 10:03:48;;;;;;;4.97;0.93;;;;;;;;;;4975289;28;20050;-74
2023/10/03 10:06:28;;;;;;;5.85;1.05;;;;;;;;;;4977335;28;20105;-75
2023/10/03 10:08:58;;;;;;;2.42;0.82;;;;;;;;;;4982184;28;20493;-74
2023/10/03 10:11:27;;;;;;;4.55;1.00;;;;;;;;;;4978998;28;20054;-75
2023/10/03 10:14:09;;;;;;;3.85;0.73;;;;;;;;;;4981431;28;20065;-79
2023/10/03 10:16:36;;;;;;;5.90;0.55;;;;;;;;;;4992932;28;20054;-75
2023/10/03 10:19:04;;;;;;;2.25;0.60;;;;;;;;;;4969191;28;20133;-75
2023/10/03 10:21:36;;;;;;;3.40;1.00;;;;;;;;;;4980493;28;20058;-75
2023/10/03 10:24:25;;;;;;;2.78;0.77;;;;;;;;;;4987735;28;20622;-77
2023/10/03 10:26:53;;;;;;;4.47;0.93;;;;;;;;;;4973131;28;20409;-75
2023/10/03 10:29:21;;;;;;;1.88;0.70;;;;;;;;;;4994974;28;20125;-75
2023/10/03 10:31:57;;;;;;;3.08;0.85;;;;;;;;;;4971087;28;20046;-75
2023/10/03 10:34:35;;;;;;;5.20;1.00;;;;;;;;;;4973414;28;20453;-74
2023/10/03 10:37:09;;;;;;;4.15;0.88;;;;;;;;;;4976508;28;20137;-75
2023/10/03 10:39:56;;;;;;;7.70;1.42;;;;;;;;;;4978145;28;20057;-74
2023/10/03 10:42:25;;;;;;;6.18;1.15;;;;;;;;;;4972705;28;20053;-76
2023/10/03 10:45:13;;;;;;;8.38;1.65;;;;;;;;;;4970928;28;20085;-74
2023/10/03 10:47:45;;;;;;;10.48;1.67;;;;;;;;;;4972693;28;20050;-76
2023/10/03 10:50:12;;;;;;;6.65;1.40;;;;;;;;;;4971598;28;20054;-74
2023/10/03 10:52:53;;;;;;;3.90;1.10;;;;;;;;;;4977839;28;20489;-73
2023/10/03 10:55:22;;;;;;;4.50;1.30;;;;;;;;;;4973014;28;20050;-74
2023/10/03 10:57:49;;;;;;;6.60;1.42;;;;;;;;;;4971526;28;20107;-75
2023/10/03 11:00:21;;;;;;;4.13;1.20;;;;;;;;;;4975196;28;20050;-74
2023/10/03 11:02:48;;;;;;;9.48;1.40;;;;;;;;;;4972086;28;20141;-74
2023/10/03 11:05:16;;;;;;;5.25;1.70;;;;;;;;;;4978933;28;20085;-74
2023/10/03 11:07:49;;;;;;;7.22;1.02;;;;;;;;;;4974754;28;20058;-72
2023/10/03 11:10:18;;;;;;;3.88;1.00;;;;;;;;;;4974902;28;20093;-75
2023/10/03 11:12:45;;;;;;;4.50;1.30;;;;;;;;;;4989115;28;20050;-74
2023/10/03 11:15:15;;;;;;;7.03;1.02;;;;;;;;;;4981734;28;20065;-75
2023/10/03 11:17:49;;;;;;;6.03;1.13;;;;;;;;;;4972824;28;20054;-75
2023/10/03 11:20:17;;;;;;;5.03;1.10;;;;;;;;;;4991561;28;20049;-74
2023/10/03 11:22:47;;;;;;;6.30;1.08;;;;;;;;;;4974807;28;20069;-75
2023/10/03 11:25:14;;;;;;;5.78;0.98;;;;;;;;;;4977340;28;20061;-74
2023/10/03 11:27:43;;;;;;;4.63;0.98;;;;;;;;;;4975108;28;20058;-75
2023/10/03 11:30:19;;;;;;;4.35;1.10;;;;;;;;;;4974975;28;20053;-76
2023/10/03 11:32:46;;;;;;;5.82;1.30;;;;;;;;;;4984033;28;20743;-75
2023/10/03 11:35:17;;;;;;;6.63;1.00;;;;;;;;;;4980269;28;20061;-75
2023/10/03 11:37:45;;;;;;;4.47;0.90;;;;;;;;;;4996394;28;20049;-76
2023/10/03 11:40:14;;;;;;;6.53;1.30;;;;;;;;;;4979352;28;20046;-75
2023/10/03 11:42:50;;;;;;;6.50;1.38;;;;;;;;;;4992823;28;20509;-76
2023/10/03 11:45:21;;;;;;;7.53;1.30;;;;;;;;;;4978908;28;20057;-75
2023/10/03 11:47:58;;;;;;;6.65;1.33;;;;;;;;;;4975537;28;20100;-75
2023/10/03 11:50:26;;;;;;;6.22;1.20;;;;;;;;;;4981122;28;20096;-75
2023/10/03 11:52:54;;;;;;;7.47;1.08;;;;;;;;;;4976700;28;20505;-74
2023/10/03 11:55:21;;;;;;;5.45;0.90;;;;;;;;;;4985584;28;20049;-75
2023/10/03 11:57:50;;;;;;;5.50;1.20;;;;;;;;;;4977875;28;20050;-74
2023/10/03 12:00:17;;;;;;;4.75;1.23;;;;;;;;;;4997892;28;20046;-75
2023/10/03 12:02:45;;;;;;;5.30;1.10;;;;;;;;;;4973941;28;20058;-75
2023/10/03 12:05:12;;;;;;;5.82;1.23;;;;;;;;;;4976217;28;20049;-75
2023/10/03 12:07:45;;;;;;;9.50;1.30;;;;;;;;;;4977134;28;20078;-74
2023/10/03 12:10:13;;;;;;;9.07;1.40;;;;;;;;;;4995088;28;20057;-75
2023/10/03 12:12:40;;;;;;;7.18;0.95;;;;;;;;;;4979008;28;20058;-76
2023/10/03 12:15:13;;;;;;;5.25;1.20;;;;;;;;;;4994064;28;20529;-75
2023/10/03 12:17:40;;;;;;;8.77;1.40;;;;;;;;;;4968388;28;20058;-74
2023/10/03 12:20:11;;;;;;;5.32;1.50;;;;;;;;;;4978443;28;20127;-76
2023/10/03 12:22:40;;;;;;;5.25;1.08;;;;;;;;;;4978643;28;20509;-74
2023/10/03 12:25:09;;;;;;;4.05;1.00;;;;;;;;;;4985993;28;20064;-75
2023/10/03 12:27:36;;;;;;;4.40;1.00;;;;;;;;;;4978066;28;20092;-75
2023/10/03 12:30:04;;;;;;;7.50;1.17;;;;;;;;;;4972466;28;20049;-76
2023/10/03 12:32:34;;;;;;;8.35;1.20;;;;;;;;;;4975756;28;20050;-75
2023/10/03 12:35:02;;;;;;;6.28;1.27;;;;;;;;;;4974796;28;20074;-75
2023/10/03 12:37:30;;;;;;;3.65;0.93;;;;;;;;;;4978584;28;20054;-75
2023/10/03 12:40:01;;;;;;;6.10;1.73;;;;;;;;;;4978558;28;20408;-75
2023/10/03 12:42:29;;;;;;;4.72;1.20;;;;;;;;;;4968773;28;20046;-74
2023/10/03 12:44:57;;;;;;;6.90;1.17;;;;;;;;;;4978152;28;20057;-74
2023/10/03 12:47:24;;;;;;;7.93;1.25;;;;;;;;;;4970704;28;20409;-76
2023/10/03 12:49:52;;;;;;;4.20;1.20;;;;;;;;;;4974674;28;20061;-76
2023/10/03 12:52:20;;;;;;;7.43;1.17;;;;;;;;;;4977944;28;20058;-76
2023/10/03 12:54:48;;;;;;;3.30;1.10;;;;;;;;;;4975081;28;20054;-75
2023/10/03 12:57:15;;;;;;;5.55;1.15;;;;;;;;;;4973245;28;20054;-75
2023/10/03 12:59:44;;;;;;;4.03;1.40;;;;;;;;;;4993767;28;20512;-77
2023/10/03 13:02:14;;;;;;;4.18;1.30;;;;;;;;;;4978201;28;20104;-74
2023/10/03 13:04:42;;;;;;;7.03;1.30;;;;;;;;;;4973402;28;20113;-75
2023/10/03 13:07:12;;;;;;;5.30;0.98;;;;;;;;;;4992797;28;20054;-77
2023/10/03 13:09:39;;;;;;;4.20;0.90;;;;;;;;;;4991829;28;20050;-76
2023/10/03 13:12:08;;;;;;;7.60;1.33;;;;;;;;;;4979461;28;20054;-76
2023/10/03 13:14:35;;;;;;;4.05;1.00;;;;;;;;;;4974773;28;20078;-76
2023/10/03 13:17:04;;;;;;;10.50;1.50;;;;;;;;;;4968569;28;20062;-75
2023/10/03 13:19:31;;;;;;;4.65;0.90;;;;;;;;;;4969943;28;20046;-74
2023/10/03 13:21:59;;;;;;;8.05;1.33;;;;;;;;;;4969425;28;20054;-74
2023/10/03 13:24:29;;;;;;;5.13;1.10;;;;;;;;;;4969494;28;20078;-75
2023/10/03 13:26:56;;;;;;;8.52;1.05;;;;;;;;;;4967957;28;20051;-75
2023/10/03 13:29:23;;;;;;;4.78;1.17;;;;;;;;;;4969156;28;20398;-74
2023/10/03 13:31:52;;;;;;;11.23;1.60;;;;;;;;;;4968776;28;20474;-72
2023/10/03 13:34:19;;;;;;;7.15;1.13;;;;;;;;;;4969916;28;20134;-74
2023/10/03 13:36:47;;;;;;;10.18;1.85;;;;;;;;;;4968855;28;20620;-73
2023/10/03 13:39:19;;;;;;;5.20;1.52;;;;;;;;;;4964002;28;20051;-74
2023/10/03 13:41:47;;;;;;;9.25;1.13;;;;;;;;;;4967927;28;20074;-76
2023/10/03 13:44:15;;;;;;;4.90;1.27;;;;;;;;;;4970011;28;20046;-75
2023/10/03 13:46:45;;;;;;;11.73;1.50;;;;;;;;;;4968568;28;20054;-76
2023/10/03 13:49:15;;;;;;;8.07;1.70;;;;;;;;;;4968149;28;20051;-76
2023/10/03 13:51:43;;;;;;;7.90;1.42;;;;;;;;;;4966083;28;20144;-76
2023/10/03 13:54:11;;;;;;;8.70;1.33;;;;;;;;;;4963306;28;20054;-74
2023/10/03 13:56:38;;;;;;;8.13;1.92;;;;;;;;;;4966757;28;20054;-74
2023/10/03 13:59:07;;;;;;;9.50;1.60;;;;;;;;;;4969205;28;20413;-77
2023/10/03 14:01:34;;;;;;;9.23;2.05;;;;;;;;;;4964520;28;20054;-75
2023/10/03 14:04:03;;;;;;;5.15;1.20;;;;;;;;;;4965563;28;20051;-75
2023/10/03 14:06:30;;;;;;;5.13;1.45;;;;;;;;;;4965734;28;20097;-76
2023/10/03 14:08:57;;;;;;;10.65;1.80;;;;;;;;;;4969120;28;20402;-76
2023/10/03 14:11:25;;;;;;;5.68;1.30;;;;;;;;;;4968075;28;20051;-74
2023/10/03 14:13:54;;;;;;;7.57;1.42;;;;;;;;;;4968919;28;20109;-74
2023/10/03 14:16:25;;;;;;;10.35;1.45;;;;;;;;;;4958677;28;20450;-74
2023/10/03 14:18:55;;;;;;;12.18;2.33;;;;;;;;;;4961883;28;20521;-74
2023/10/03 14:21:22;;;;;;;8.93;1.40;;;;;;;;;;4955950;28;20055;-74
2023/10/03 14:23:53;;;;;;;6.00;1.67;;;;;;;;;;4950742;28;20065;-74
2023/10/03 14:26:20;;;;;;;8.23;1.60;;;;;;;;;;4950937;28;20535;-74
2023/10/03 14:28:47;;;;;;;12.10;1.65;;;;;;;;;;4952146;28;20059;-74
2023/10/03 14:31:14;;;;;;;8.73;1.75;;;;;;;;;;4959060;28;20518;-76
2023/10/03 14:33:43;;;;;;;8.65;1.17;;;;;;;;;;4956929;28;20154;-74
2023/10/03 14:36:12;;;;;;;4.13;1.38;;;;;;;;;;4952488;28;20143;-73
2023/10/03 14:38:39;;;;;;;9.05;1.60;;;;;;;;;;4956450;28;20138;-73
2023/10/03 14:41:06;;;;;;;4.50;1.10;;;;;;;;;;4957348;28;20110;-73
2023/10/03 14:43:38;;;;;;;7.80;1.17;;;;;;;;;;4952854;28;20062;-73